sensor_id;sensor_type;location;lat;lon;timestamp;pressure;altitude;pressure_sealevel;temperature;humidity
75942;BME280;64622;46.220;19.878;2023-03-01T00:01:06;101533.81;;;2.47;100.00
75942;BME280;64622;46.220;19.878;2023-03-01T00:03:34;101531.94;;;2.49;100.00
75942;BME280;64622;46.220;19.878;2023-03-01T00:06:01;101519.91;;;2.43;100.00
75942;BME280;64622;46.220;19.878;2023-03-01T00:08:29;101524.31;;;2.43;100.00
75942;BME280;64622;46.220;19.878;2023-03-01T00:11:24;101518.28;;;2.41;100.00
75942;BME280;64622;46.220;19.878;2023-03-01T00:13:52;101534.75;;;2.46;100.00
75942;BME280;64622;46.220;19.878;2023-03-01T00:16:22;101518.16;;;2.42;100.00
75942;BME280;64622;46.220;19.878;2023-03-01T00:18:49;101525.00;;;2.46;100.00
75942;BME280;64622;46.220;19.878;2023-03-01T00:21:17;101533.81;;;2.47;100.00
75942;BME280;64622;46.220;19.878;2023-03-01T00:23:44;101531.94;;;2.49;100.00
75942;BME280;64622;46.220;19.878;2023-03-01T00:26:13;101517.25;;;2.43;100.00
75942;BME280;64622;46.220;19.878;2023-03-01T00:28:40;101525.88;;;2.47;100.00
75942;BME280;64622;46.220;19.878;2023-03-01T00:31:10;101515.37;;;2.45;100.00
75942;BME280;64622;46.220;19.878;2023-03-01T00:33:38;101527.59;;;2.48;100.00
75942;BME280;64622;46.220;19.878;2023-03-01T00:36:06;101517.97;;;2.47;100.00
75942;BME280;64622;46.220;19.878;2023-03-01T00:38:37;101516.16;;;2.47;100.00
75942;BME280;64622;46.220;19.878;2023-03-01T00:41:08;101499.69;;;2.42;100.00
75942;BME280;64622;46.220;19.878;2023-03-01T00:43:37;101502.94;;;2.47;100.00
75942;BME280;64622;46.220;19.878;2023-03-01T00:46:05;101486.72;;;2.38;100.00
75942;BME280;64622;46.220;19.878;2023-03-01T00:48:33;101494.25;;;2.45;100.00
75942;BME280;64622;46.220;19.878;2023-03-01T00:51:07;101492.38;;;2.47;100.00
75942;BME280;64622;46.220;19.878;2023-03-01T00:53:34;101495.94;;;2.46;100.00
75942;BME280;64622;46.220;19.878;2023-03-01T00:56:03;101494.00;;;2.50;100.00
75942;BME280;64622;46.220;19.878;2023-03-01T00:58:30;101476.69;;;2.44;100.00
75942;BME280;64622;46.220;19.878;2023-03-01T01:00:56;101490.53;;;2.49;100.00
75942;BME280;64622;46.220;19.878;2023-03-01T01:03:24;101482.41;;;2.52;100.00
75942;BME280;64622;46.220;19.878;2023-03-01T01:05:54;101460.91;;;2.43;100.00
75942;BME280;64622;46.220;19.878;2023-03-01T01:08:20;101480.97;;;2.47;100.00
75942;BME280;64622;46.220;19.878;2023-03-01T01:10:48;101476.63;;;2.46;100.00
75942;BME280;64622;46.220;19.878;2023-03-01T01:13:14;101467.91;;;2.44;100.00
75942;BME280;64622;46.220;19.878;2023-03-01T01:15:41;101475.69;;;2.47;100.00
75942;BME280;64622;46.220;19.878;2023-03-01T01:18:08;101475.69;;;2.47;100.00
75942;BME280;64622;46.220;19.878;2023-03-01T01:20:35;101461.00;;;2.41;100.00
75942;BME280;64622;46.220;19.878;2023-03-01T01:23:05;101460.16;;;2.41;100.00
75942;BME280;64622;46.220;19.878;2023-03-01T01:25:34;101456.72;;;2.39;100.00
75942;BME280;64622;46.220;19.878;2023-03-01T01:28:02;101459.03;;;2.45;100.00
75942;BME280;64622;46.220;19.878;2023-03-01T01:30:30;101448.03;;;2.37;100.00
75942;BME280;64622;46.220;19.878;2023-03-01T01:32:57;101454.69;;;2.44;100.00
75942;BME280;64622;46.220;19.878;2023-03-01T01:35:23;101447.09;;;2.38;100.00
75942;BME280;64622;46.220;19.878;2023-03-01T01:37:50;101444.38;;;2.39;100.00
75942;BME280;64622;46.220;19.878;2023-03-01T01:40:18;101454.37;;;2.50;100.00
75942;BME280;64622;46.220;19.878;2023-03-01T01:42:44;101444.19;;;2.42;100.00
75942;BME280;64622;46.220;19.878;2023-03-01T01:45:27;101450.81;;;2.51;100.00
75942;BME280;64622;46.220;19.878;2023-03-01T01:47:58;101446.38;;;2.51;100.00
75942;BME280;64622;46.220;19.878;2023-03-01T01:50:27;101445.28;;;2.55;100.00
75942;BME280;64622;46.220;19.878;2023-03-01T01:53:08;101437.50;;;2.52;100.00
75942;BME280;64622;46.220;19.878;2023-03-01T01:55:37;101439.91;;;2.57;100.00
75942;BME280;64622;46.220;19.878;2023-03-01T01:58:08;101438.97;;;2.58;100.00
75942;BME280;64622;46.220;19.878;2023-03-01T02:00:38;101441.38;;;2.62;100.00
75942;BME280;64622;46.220;19.878;2023-03-01T02:03:11;101432.81;;;2.57;100.00
75942;BME280;64622;46.220;19.878;2023-03-01T02:08:11;101452.47;;;2.69;100.00
75942;BME280;64622;46.220;19.878;2023-03-01T02:10:40;101444.00;;;2.62;100.00
75942;BME280;64622;46.220;19.878;2023-03-01T02:13:07;101433.37;;;2.64;100.00
75942;BME280;64622;46.220;19.878;2023-03-01T02:15:35;101433.37;;;2.64;100.00
75942;BME280;64622;46.220;19.878;2023-03-01T02:18:03;101435.75;;;2.68;100.00
75942;BME280;64622;46.220;19.878;2023-03-01T02:20:41;101437.56;;;2.68;100.00
75942;BME280;64622;46.220;19.878;2023-03-01T02:23:11;101424.50;;;2.65;100.00
75942;BME280;64622;46.220;19.878;2023-03-01T02:30:47;101421.38;;;2.74;100.00
75942;BME280;64622;46.220;19.878;2023-03-01T02:33:37;101420.75;;;2.69;100.00
75942;BME280;64622;46.220;19.878;2023-03-01T02:36:09;101435.25;;;2.77;100.00
75942;BME280;64622;46.220;19.878;2023-03-01T02:38:38;101429.03;;;2.78;100.00
75942;BME280;64622;46.220;19.878;2023-03-01T02:41:06;101418.72;;;2.74;100.00
75942;BME280;64622;46.220;19.878;2023-03-01T02:43:34;101418.38;;;2.80;100.00
75942;BME280;64622;46.220;19.878;2023-03-01T02:46:27;101427.94;;;2.82;100.00
75942;BME280;64622;46.220;19.878;2023-03-01T02:48:56;101433.16;;;2.84;100.00
75942;BME280;64622;46.220;19.878;2023-03-01T02:54:11;101427.88;;;2.84;100.00
75942;BME280;64622;46.220;19.878;2023-03-01T02:56:41;101425.06;;;2.87;100.00
75942;BME280;64622;46.220;19.878;2023-03-01T02:59:09;101412.59;;;2.89;100.00
75942;BME280;64622;46.220;19.878;2023-03-01T03:01:37;101419.00;;;2.85;100.00
75942;BME280;64622;46.220;19.878;2023-03-01T03:04:07;101401.59;;;2.81;100.00
75942;BME280;64622;46.220;19.878;2023-03-01T03:06:34;101407.59;;;2.84;100.00
75942;BME280;64622;46.220;19.878;2023-03-01T03:09:05;101410.91;;;2.88;100.00
75942;BME280;64622;46.220;19.878;2023-03-01T03:11:32;101401.16;;;2.88;100.00
75942;BME280;64622;46.220;19.878;2023-03-01T03:13:59;101402.38;;;2.83;100.00
75942;BME280;64622;46.220;19.878;2023-03-01T03:16:25;101396.81;;;2.87;100.00
75942;BME280;64622;46.220;19.878;2023-03-01T03:18:52;101387.88;;;2.90;100.00
75942;BME280;64622;46.220;19.878;2023-03-01T03:21:19;101395.81;;;2.90;100.00
75942;BME280;64622;46.220;19.878;2023-03-01T03:23:46;101395.66;;;2.93;100.00
75942;BME280;64622;46.220;19.878;2023-03-01T03:26:12;101384.28;;;2.91;100.00
75942;BME280;64622;46.220;19.878;2023-03-01T03:28:39;101397.09;;;2.98;100.00
75942;BME280;64622;46.220;19.878;2023-03-01T03:31:07;101399.84;;;2.97;100.00
75942;BME280;64622;46.220;19.878;2023-03-01T03:33:34;101404.19;;;2.98;100.00
75942;BME280;64622;46.220;19.878;2023-03-01T03:36:01;101387.62;;;2.94;100.00
75942;BME280;64622;46.220;19.878;2023-03-01T03:38:28;101398.97;;;2.96;100.00
75942;BME280;64622;46.220;19.878;2023-03-01T03:41:03;101398.03;;;2.97;100.00
75942;BME280;64622;46.220;19.878;2023-03-01T03:43:33;101396.66;;;2.90;100.00
75942;BME280;64622;46.220;19.878;2023-03-01T03:46:00;101388.41;;;2.96;100.00
75942;BME280;64622;46.220;19.878;2023-03-01T03:48:50;101396.47;;;2.93;100.00
75942;BME280;64622;46.220;19.878;2023-03-01T03:51:18;101396.41;;;2.95;100.00
75942;BME280;64622;46.220;19.878;2023-03-01T03:53:45;101374.72;;;2.88;100.00
75942;BME280;64622;46.220;19.878;2023-03-01T03:56:30;101387.62;;;2.94;100.00
75942;BME280;64622;46.220;19.878;2023-03-01T03:59:15;101386.00;;;2.92;100.00
75942;BME280;64622;46.220;19.878;2023-03-01T04:04:27;101379.53;;;2.82;100.00
75942;BME280;64622;46.220;19.878;2023-03-01T04:06:53;101380.19;;;2.85;100.00
75942;BME280;64622;46.220;19.878;2023-03-01T04:09:20;101381.31;;;2.81;100.00
75942;BME280;64622;46.220;19.878;2023-03-01T04:11:47;101383.59;;;2.87;100.00
75942;BME280;64622;46.220;19.878;2023-03-01T04:14:13;101386.25;;;2.87;100.00
75942;BME280;64622;46.220;19.878;2023-03-01T04:16:39;101376.47;;;2.89;100.00
75942;BME280;64622;46.220;19.878;2023-03-01T04:19:06;101373.38;;;2.81;100.00
75942;BME280;64622;46.220;19.878;2023-03-01T04:21:33;101374.91;;;2.85;100.00
75942;BME280;64622;46.220;19.878;2023-03-01T04:23:59;101367.06;;;2.84;100.00
75942;BME280;64622;46.220;19.878;2023-03-01T04:26:26;101377.38;;;2.88;100.00
75942;BME280;64622;46.220;19.878;2023-03-01T04:28:53;101369.72;;;2.84;100.00
75942;BME280;64622;46.220;19.878;2023-03-01T04:31:20;101367.22;;;2.81;100.00
75942;BME280;64622;46.220;19.878;2023-03-01T04:33:52;101367.47;;;2.76;100.00
75942;BME280;64622;46.220;19.878;2023-03-01T04:36:23;101376.78;;;2.83;100.00
75942;BME280;64622;46.220;19.878;2023-03-01T04:38:50;101369.78;;;2.82;100.00
75942;BME280;64622;46.220;19.878;2023-03-01T04:41:20;101371.41;;;2.85;100.00
75942;BME280;64622;46.220;19.878;2023-03-01T04:43:47;101349.56;;;2.81;100.00
75942;BME280;64622;46.220;19.878;2023-03-01T04:46:17;101362.03;;;2.95;100.00
75942;BME280;64622;46.220;19.878;2023-03-01T04:48:46;101362.28;;;2.90;100.00
75942;BME280;64622;46.220;19.878;2023-03-01T04:51:14;101352.41;;;2.94;100.00
75942;BME280;64622;46.220;19.878;2023-03-01T04:53:42;101346.34;;;2.92;100.00
75942;BME280;64622;46.220;19.878;2023-03-01T04:56:12;101353.41;;;2.91;100.00
75942;BME280;64622;46.220;19.878;2023-03-01T04:58:40;101343.00;;;2.88;100.00
75942;BME280;64622;46.220;19.878;2023-03-01T05:01:18;101348.28;;;2.88;100.00
75942;BME280;64622;46.220;19.878;2023-03-01T05:03:50;101352.56;;;2.91;100.00
75942;BME280;64622;46.220;19.878;2023-03-01T05:06:19;101357.84;;;2.91;100.00
75942;BME280;64622;46.220;19.878;2023-03-01T05:08:46;101357.84;;;2.91;100.00
75942;BME280;64622;46.220;19.878;2023-03-01T05:11:12;101358.87;;;2.88;100.00
75942;BME280;64622;46.220;19.878;2023-03-01T05:13:40;101357.16;;;2.87;100.00
75942;BME280;64622;46.220;19.878;2023-03-01T05:16:07;101358.25;;;2.83;100.00
75942;BME280;64622;46.220;19.878;2023-03-01T05:18:37;101351.34;;;2.81;100.00
75942;BME280;64622;46.220;19.878;2023-03-01T05:21:08;101349.66;;;2.80;100.00
75942;BME280;64622;46.220;19.878;2023-03-01T05:23:35;101348.81;;;2.79;100.00
75942;BME280;64622;46.220;19.878;2023-03-01T05:26:04;101339.34;;;2.75;100.00
75942;BME280;64622;46.220;19.878;2023-03-01T05:28:32;101350.44;;;2.82;100.00
75942;BME280;64622;46.220;19.878;2023-03-01T05:30:58;101344.56;;;2.77;100.00
75942;BME280;64622;46.220;19.878;2023-03-01T05:33:26;101341.13;;;2.75;100.00
75942;BME280;64622;46.220;19.878;2023-03-01T05:35:53;101358.44;;;2.80;100.00
75942;BME280;64622;46.220;19.878;2023-03-01T05:38:20;101364.50;;;2.82;100.00
75942;BME280;64622;46.220;19.878;2023-03-01T05:40:48;101361.09;;;2.80;100.00
75942;BME280;64622;46.220;19.878;2023-03-01T05:43:16;101361.34;;;2.76;100.00
75942;BME280;64622;46.220;19.878;2023-03-01T05:45:43;101353.41;;;2.76;100.00
75942;BME280;64622;46.220;19.878;2023-03-01T05:48:11;101363.75;;;2.80;100.00
75942;BME280;64622;46.220;19.878;2023-03-01T05:50:42;101371.75;;;2.79;100.00
75942;BME280;64622;46.220;19.878;2023-03-01T05:53:15;101349.84;;;2.77;100.00
75942;BME280;64622;46.220;19.878;2023-03-01T05:55:43;101366.31;;;2.82;100.00
75942;BME280;64622;46.220;19.878;2023-03-01T05:58:12;101368.00;;;2.83;100.00
75942;BME280;64622;46.220;19.878;2023-03-01T06:00:41;101364.56;;;2.81;100.00
75942;BME280;64622;46.220;19.878;2023-03-01T06:03:11;101368.00;;;2.83;100.00
75942;BME280;64622;46.220;19.878;2023-03-01T06:05:38;101362.03;;;2.79;100.00
75942;BME280;64622;46.220;19.878;2023-03-01T06:08:05;101371.41;;;2.85;100.00
75942;BME280;64622;46.220;19.878;2023-03-01T06:10:33;101375.59;;;2.89;100.00
75942;BME280;64622;46.220;19.878;2023-03-01T06:12:59;101373.72;;;2.91;100.00
75942;BME280;64622;46.220;19.878;2023-03-01T06:15:26;101363.25;;;2.89;100.00
75942;BME280;64622;46.220;19.878;2023-03-01T06:17:54;101369.22;;;2.93;100.00
75942;BME280;64622;46.220;19.878;2023-03-01T06:20:27;101377.66;;;2.99;100.00
75942;BME280;64622;46.220;19.878;2023-03-01T06:22:54;101380.13;;;3.02;100.00
75942;BME280;64622;46.220;19.878;2023-03-01T06:25:22;101368.00;;;2.98;100.00
75942;BME280;64622;46.220;19.878;2023-03-01T06:27:49;101385.25;;;3.05;100.00
75942;BME280;64622;46.220;19.878;2023-03-01T06:30:18;101388.66;;;3.07;100.00
75942;BME280;64622;46.220;19.878;2023-03-01T06:32:45;101385.91;;;3.09;100.00
75942;BME280;64622;46.220;19.878;2023-03-01T06:35:14;101383.78;;;3.15;100.00
75942;BME280;64622;46.220;19.878;2023-03-01T06:37:41;101388.91;;;3.18;100.00
75942;BME280;64622;46.220;19.878;2023-03-01T06:40:10;101385.41;;;3.18;100.00
75942;BME280;64622;46.220;19.878;2023-03-01T06:42:43;101387.88;;;3.21;100.00
75942;BME280;64622;46.220;19.878;2023-03-01T06:45:11;101387.03;;;3.20;100.00
75942;BME280;64622;46.220;19.878;2023-03-01T06:47:37;101386.59;;;3.28;100.00
75942;BME280;64622;46.220;19.878;2023-03-01T06:50:05;101388.38;;;3.27;100.00
75942;BME280;64622;46.220;19.878;2023-03-01T06:52:33;101400.22;;;3.36;100.00
75942;BME280;64622;46.220;19.878;2023-03-01T06:55:00;101388.75;;;3.37;100.00
75942;BME280;64622;46.220;19.878;2023-03-01T06:57:27;101387.78;;;3.38;100.00
75942;BME280;64622;46.220;19.878;2023-03-01T06:59:56;101392.81;;;3.42;100.00
75942;BME280;64622;46.220;19.878;2023-03-01T07:02:22;101380.44;;;3.43;100.00
75942;BME280;64622;46.220;19.878;2023-03-01T07:04:50;101392.22;;;3.53;100.00
75942;BME280;64622;46.220;19.878;2023-03-01T07:07:18;101382.37;;;3.55;100.00
75942;BME280;64622;46.220;19.878;2023-03-01T07:09:49;101380.69;;;3.54;100.00
75942;BME280;64622;46.220;19.878;2023-03-01T07:12:16;101393.56;;;3.60;100.00
75942;BME280;64622;46.220;19.878;2023-03-01T07:14:43;101388.25;;;3.60;100.00
75942;BME280;64622;46.220;19.878;2023-03-01T07:17:10;101378.78;;;3.56;100.00
75942;BME280;64622;46.220;19.878;2023-03-01T07:19:36;101384.59;;;3.62;100.00
75942;BME280;64622;46.220;19.878;2023-03-01T07:22:03;101387.81;;;3.67;100.00
75942;BME280;64622;46.220;19.878;2023-03-01T07:24:30;101383.63;;;3.63;100.00
75942;BME280;64622;46.220;19.878;2023-03-01T07:26:57;101379.78;;;3.69;100.00
75942;BME280;64622;46.220;19.878;2023-03-01T07:29:23;101388.28;;;3.89;100.00
75942;BME280;64622;46.220;19.878;2023-03-01T07:31:50;101385.78;;;4.02;100.00
75942;BME280;64622;46.220;19.878;2023-03-01T07:34:17;101387.25;;;4.06;100.00
75942;BME280;64622;46.220;19.878;2023-03-01T07:36:43;101383.91;;;4.18;100.00
75942;BME280;64622;46.220;19.878;2023-03-01T07:39:11;101374.12;;;4.18;99.75
75942;BME280;64622;46.220;19.878;2023-03-01T07:41:38;101382.87;;;4.48;99.85
75942;BME280;64622;46.220;19.878;2023-03-01T07:44:05;101380.59;;;4.42;99.27
75942;BME280;64622;46.220;19.878;2023-03-01T07:46:31;101370.00;;;4.56;98.84
75942;BME280;64622;46.220;19.878;2023-03-01T07:48:58;101380.62;;;4.84;97.89
75942;BME280;64622;46.220;19.878;2023-03-01T07:51:25;101372.75;;;4.69;95.96
75942;BME280;64622;46.220;19.878;2023-03-01T07:53:51;101374.91;;;4.48;96.34
75942;BME280;64622;46.220;19.878;2023-03-01T07:56:17;101381.38;;;4.58;96.64
75942;BME280;64622;46.220;19.878;2023-03-01T07:58:45;101388.41;;;4.59;96.40
75942;BME280;64622;46.220;19.878;2023-03-01T08:01:14;101384.69;;;4.62;96.07
75942;BME280;64622;46.220;19.878;2023-03-01T08:03:42;101375.03;;;4.75;96.18
75942;BME280;64622;46.220;19.878;2023-03-01T08:06:10;101375.50;;;4.67;95.35
75942;BME280;64622;46.220;19.878;2023-03-01T08:08:37;101379.00;;;4.82;95.20
75942;BME280;64622;46.220;19.878;2023-03-01T08:11:06;101378.72;;;4.72;95.10
75942;BME280;64622;46.220;19.878;2023-03-01T08:13:33;101382.59;;;4.81;95.48
75942;BME280;64622;46.220;19.878;2023-03-01T08:16:01;101372.56;;;4.72;94.65
75942;BME280;64622;46.220;19.878;2023-03-01T08:18:29;101388.38;;;4.73;95.03
75942;BME280;64622;46.220;19.878;2023-03-01T08:20:55;101374.94;;;4.62;94.81
75942;BME280;64622;46.220;19.878;2023-03-01T08:23:22;101380.22;;;4.62;94.82
75942;BME280;64622;46.220;19.878;2023-03-01T08:25:49;101380.97;;;4.78;95.54
75942;BME280;64622;46.220;19.878;2023-03-01T08:28:15;101370.19;;;4.53;94.94
75942;BME280;64622;46.220;19.878;2023-03-01T08:30:42;101375.31;;;4.56;95.48
75942;BME280;64622;46.220;19.878;2023-03-01T08:33:09;101357.62;;;4.57;95.14
75942;BME280;64622;46.220;19.878;2023-03-01T08:35:35;101373.88;;;4.65;95.65
75942;BME280;64622;46.220;19.878;2023-03-01T08:38:01;101364.16;;;4.51;95.60
75942;BME280;64622;46.220;19.878;2023-03-01T08:40:28;101356.56;;;4.45;96.09
75942;BME280;64622;46.220;19.878;2023-03-01T08:42:55;101352.41;;;4.41;95.84
75942;BME280;64622;46.220;19.878;2023-03-01T08:45:23;101352.69;;;4.37;95.60
75942;BME280;64622;46.220;19.878;2023-03-01T08:47:52;101358.38;;;4.45;96.00
75942;BME280;64622;46.220;19.878;2023-03-01T08:50:20;101356.00;;;4.40;95.87
75942;BME280;64622;46.220;19.878;2023-03-01T08:52:49;101345.59;;;4.37;96.00
75942;BME280;64622;46.220;19.878;2023-03-01T08:55:15;101343.72;;;4.39;96.37
75942;BME280;64622;46.220;19.878;2023-03-01T08:57:43;101352.31;;;4.57;96.29
75942;BME280;64622;46.220;19.878;2023-03-01T09:00:11;101353.91;;;4.73;95.77
75942;BME280;64622;46.220;19.878;2023-03-01T09:02:39;101355.72;;;4.59;96.00
75942;BME280;64622;46.220;19.878;2023-03-01T09:05:05;101353.06;;;4.59;94.91
75942;BME280;64622;46.220;19.878;2023-03-01T09:07:32;101345.19;;;4.57;95.49
75942;BME280;64622;46.220;19.878;2023-03-01T09:09:59;101356.66;;;4.58;95.75
75942;BME280;64622;46.220;19.878;2023-03-01T09:12:25;101332.16;;;4.54;96.32
75942;BME280;64622;46.220;19.878;2023-03-01T09:14:52;101330.97;;;4.72;95.93
75942;BME280;64622;46.220;19.878;2023-03-01T09:17:19;101339.00;;;4.85;95.07
75942;BME280;64622;46.220;19.878;2023-03-01T09:19:47;101328.81;;;4.79;94.98
75942;BME280;64622;46.220;19.878;2023-03-01T09:22:15;101329.66;;;4.79;95.04
75942;BME280;64622;46.220;19.878;2023-03-01T09:24:42;101335.78;;;4.94;94.79
75942;BME280;64622;46.220;19.878;2023-03-01T09:27:08;101325.09;;;4.95;94.76
75942;BME280;64622;46.220;19.878;2023-03-01T09:29:36;101323.44;;;5.07;94.36
75942;BME280;64622;46.220;19.878;2023-03-01T09:32:03;101323.38;;;5.47;93.70
75942;BME280;64622;46.220;19.878;2023-03-01T09:34:30;101327.19;;;5.43;92.46
75942;BME280;64622;46.220;19.878;2023-03-01T09:36:57;101316.72;;;5.67;91.83
75942;BME280;64622;46.220;19.878;2023-03-01T09:39:24;101325.28;;;5.84;91.04
75942;BME280;64622;46.220;19.878;2023-03-01T09:42:00;101308.41;;;5.46;91.00
75942;BME280;64622;46.220;19.878;2023-03-01T09:44:52;101319.66;;;5.50;91.21
75942;BME280;64622;46.220;19.878;2023-03-01T09:47:30;101319.03;;;5.46;91.41
75942;BME280;64622;46.220;19.878;2023-03-01T09:50:09;101315.91;;;5.79;90.92
75942;BME280;64622;46.220;19.878;2023-03-01T09:52:43;101329.25;;;6.04;90.06
75942;BME280;64622;46.220;19.878;2023-03-01T09:55:14;101318.56;;;5.79;90.01
75942;BME280;64622;46.220;19.878;2023-03-01T09:57:52;101329.47;;;5.74;90.90
75942;BME280;64622;46.220;19.878;2023-03-01T10:03:17;101334.47;;;6.06;90.41
75942;BME280;64622;46.220;19.878;2023-03-01T10:06:06;101337.53;;;6.12;89.44
75942;BME280;64622;46.220;19.878;2023-03-01T10:14:03;101333.62;;;6.05;89.57
75942;BME280;64622;46.220;19.878;2023-03-01T10:16:54;101324.56;;;5.95;89.69
75942;BME280;64622;46.220;19.878;2023-03-01T10:19:37;101324.25;;;5.99;90.88
75942;BME280;64622;46.220;19.878;2023-03-01T10:22:18;101311.63;;;6.16;88.93
75942;BME280;64622;46.220;19.878;2023-03-01T10:24:48;101324.06;;;6.15;88.98
75942;BME280;64622;46.220;19.878;2023-03-01T10:30:13;101314.06;;;6.18;88.46
75942;BME280;64622;46.220;19.878;2023-03-01T10:32:51;101306.31;;;6.28;87.72
75942;BME280;64622;46.220;19.878;2023-03-01T10:35:34;101309.47;;;6.46;87.66
75942;BME280;64622;46.220;19.878;2023-03-01T10:38:09;101295.53;;;6.42;88.09
75942;BME280;64622;46.220;19.878;2023-03-01T10:40:54;101286.50;;;6.32;88.58
75942;BME280;64622;46.220;19.878;2023-03-01T10:43:21;101285.16;;;6.75;87.72
75942;BME280;64622;46.220;19.878;2023-03-01T10:45:48;101274.09;;;6.68;87.89
75942;BME280;64622;46.220;19.878;2023-03-01T10:48:18;101276.63;;;7.06;86.11
75942;BME280;64622;46.220;19.878;2023-03-01T10:51:05;101282.75;;;6.96;86.86
75942;BME280;64622;46.220;19.878;2023-03-01T10:53:50;101285.22;;;7.09;86.31
75942;BME280;64622;46.220;19.878;2023-03-01T10:56:17;101269.44;;;7.19;86.07
75942;BME280;64622;46.220;19.878;2023-03-01T10:58:59;101262.38;;;7.31;85.20
75942;BME280;64622;46.220;19.878;2023-03-01T11:01:32;101255.00;;;7.34;85.35
75942;BME280;64622;46.220;19.878;2023-03-01T11:04:17;101270.72;;;7.37;85.34
75942;BME280;64622;46.220;19.878;2023-03-01T11:06:58;101260.22;;;7.36;84.98
75942;BME280;64622;46.220;19.878;2023-03-01T11:09:25;101260.91;;;7.72;84.53
75942;BME280;64622;46.220;19.878;2023-03-01T11:12:00;101248.47;;;7.94;83.65
75942;BME280;64622;46.220;19.878;2023-03-01T11:14:37;101248.69;;;7.69;84.02
75942;BME280;64622;46.220;19.878;2023-03-01T11:17:22;101253.16;;;7.58;83.47
75942;BME280;64622;46.220;19.878;2023-03-01T11:22:58;101224.25;;;7.97;84.38
75942;BME280;64622;46.220;19.878;2023-03-01T11:25:31;101217.88;;;8.22;82.78
75942;BME280;64622;46.220;19.878;2023-03-01T11:28:02;101215.19;;;8.11;83.47
75942;BME280;64622;46.220;19.878;2023-03-01T11:30:41;101205.97;;;8.15;83.10
75942;BME280;64622;46.220;19.878;2023-03-01T11:36:02;101202.81;;;8.43;80.72
75942;BME280;64622;46.220;19.878;2023-03-01T11:38:34;101198.16;;;8.78;80.76
75942;BME280;64622;46.220;19.878;2023-03-01T11:41:07;101198.38;;;8.86;80.51
75942;BME280;64622;46.220;19.878;2023-03-01T11:48:45;101190.31;;;9.70;76.63
75942;BME280;64622;46.220;19.878;2023-03-01T11:56:57;101174.25;;;9.90;76.43
75942;BME280;64622;46.220;19.878;2023-03-01T11:59:37;101159.25;;;10.29;75.23
75942;BME280;64622;46.220;19.878;2023-03-01T12:19:27;101132.91;;;11.76;65.95
75942;BME280;64622;46.220;19.878;2023-03-01T12:47:07;101114.22;;;11.94;66.82
75942;BME280;64622;46.220;19.878;2023-03-01T12:49:42;101111.00;;;11.25;68.83
75942;BME280;64622;46.220;19.878;2023-03-01T12:52:26;101097.31;;;10.52;70.59
75942;BME280;64622;46.220;19.878;2023-03-01T12:54:57;101089.00;;;12.04;68.00
75942;BME280;64622;46.220;19.878;2023-03-01T12:57:33;101103.06;;;11.33;68.85
75942;BME280;64622;46.220;19.878;2023-03-01T13:06:16;101097.50;;;12.71;65.63
75942;BME280;64622;46.220;19.878;2023-03-01T13:11:21;101089.28;;;11.84;67.14
75942;BME280;64622;46.220;19.878;2023-03-01T13:13:49;101091.59;;;12.68;65.49
75942;BME280;64622;46.220;19.878;2023-03-01T13:16:39;101070.22;;;11.77;68.26
75942;BME280;64622;46.220;19.878;2023-03-01T13:19:29;101086.97;;;11.33;70.09
75942;BME280;64622;46.220;19.878;2023-03-01T13:22:25;101081.00;;;11.58;69.96
75942;BME280;64622;46.220;19.878;2023-03-01T13:25:16;101080.53;;;12.71;66.70
75942;BME280;64622;46.220;19.878;2023-03-01T13:27:45;101074.66;;;12.23;66.02
75942;BME280;64622;46.220;19.878;2023-03-01T13:30:45;101071.72;;;11.53;69.28
75942;BME280;64622;46.220;19.878;2023-03-01T13:35:55;101066.22;;;11.91;68.79
75942;BME280;64622;46.220;19.878;2023-03-01T13:41:17;101074.50;;;10.96;71.22
75942;BME280;64622;46.220;19.878;2023-03-01T13:46:45;101076.31;;;10.67;73.15
75942;BME280;64622;46.220;19.878;2023-03-01T13:49:15;101064.50;;;10.50;73.65
75942;BME280;64622;46.220;19.878;2023-03-01T13:51:46;101066.88;;;10.53;73.28
75942;BME280;64622;46.220;19.878;2023-03-01T13:54:15;101067.47;;;10.76;72.61
75942;BME280;64622;46.220;19.878;2023-03-01T13:56:43;101072.53;;;10.79;73.13
75942;BME280;64622;46.220;19.878;2023-03-01T13:59:15;101060.25;;;11.05;72.13
75942;BME280;64622;46.220;19.878;2023-03-01T14:01:43;101067.00;;;11.28;71.10
75942;BME280;64622;46.220;19.878;2023-03-01T14:06:52;101059.56;;;10.84;72.23
75942;BME280;64622;46.220;19.878;2023-03-01T14:09:39;101059.56;;;10.93;72.75
75942;BME280;64622;46.220;19.878;2023-03-01T14:12:25;101051.53;;;10.74;72.70
75942;BME280;64622;46.220;19.878;2023-03-01T14:15:18;101038.56;;;10.70;73.30
75942;BME280;64622;46.220;19.878;2023-03-01T14:20:24;101041.09;;;10.81;73.01
75942;BME280;64622;46.220;19.878;2023-03-01T14:22:58;101041.53;;;10.86;72.96
75942;BME280;64622;46.220;19.878;2023-03-01T14:25:31;101041.53;;;10.86;73.46
75942;BME280;64622;46.220;19.878;2023-03-01T14:28:05;101038.00;;;10.95;73.21
75942;BME280;64622;46.220;19.878;2023-03-01T14:30:49;101037.59;;;10.80;73.60
75942;BME280;64622;46.220;19.878;2023-03-01T14:33:26;101030.69;;;10.78;74.44
75942;BME280;64622;46.220;19.878;2023-03-01T14:35:54;101017.72;;;10.64;74.69
75942;BME280;64622;46.220;19.878;2023-03-01T14:38:30;101025.91;;;10.62;74.08
75942;BME280;64622;46.220;19.878;2023-03-01T14:41:00;101010.69;;;10.53;74.58
75942;BME280;64622;46.220;19.878;2023-03-01T14:43:29;101010.84;;;10.61;73.24
75942;BME280;64622;46.220;19.878;2023-03-01T14:45:56;101007.72;;;10.75;72.61